Etusivu
METAR-TAF:

METAR-TAF

Lentoasemat :

Porto Alegre, Rio Grande do Sul, Brasilia

Leveyspiiri: 30-01S, Pituuspiiri: 051-13W, korkeus merenpinnasta: 47 m

Tämänhetkinen sää

Tämä raportti tehtiin 1 tunti ja 26 minuuttia sitten, kello 11.00 UTC
tyyntä
Lämpötila 13°C
Kosteus 100%
Ilmanpaine 1011 hPa
Näkyvyys: 9000 m
sumuhattaroita,

METAR: SBCO 221100Z 00000KT 9000 BCFG NSC 13/13 Q1011

Aika: 09:26 (12:26 UTC)

Sääennuste

Tämä raportti tehtiin 9 tuntia ja 26 minuuttia sitten, kello 03.00 UTC
Ennuste voimassa 22. päivästä klo 06 UTC - 22. päivään klo 18 UTC
Tuuli 5 kn pohjoisen/luoteesta
Näkyvyys 10 km tai enemmän
Muutamia pilviä 4000 ft:n korkeudessa
Tulossa
22. päivästä klo 07 UTC - 22. päivään klo 09 UTC
Näkyvyys 10 km tai enemmän
ei pilviä alle 1500 m:ssä eikä cumulonimbus-pilviä

TAF: SBCO 220300Z 2206/2218 34005KT 9999 FEW040 TN16/2209Z TX27/2218Z BECMG 2207/2209 CAVOK RMK PES

Säähavainnot ja -ennusteet yli 4000 lentoasemalta (METAR- ja TAF-raportit).

Käytössä olevat sääasemat on merkitty karttaan keltaisilla ja punaisilla pisteillä.

Aseta hiiri pisteen päälle nähdäksesi sääaseman nimen.

Klikkaa sitten nähdäksesi säähavainnot ja -ennusteet.

Kartan vaihtaminen: klikkaa mustalla rastilla varustettuja vihreitä pisteitä, niin voit zoomata sisään; viivalla varustettua vihreää pistettä, niin voit zoomata ulos tai vihreitä nuolia, niin pääset viereisille kartoille.


METAR-TAF: